createdAt,value
2019-01-12T00:04:27.387Z,0.60
2019-01-12T00:09:35.361Z,0.70
2019-01-12T00:14:42.649Z,0.80
2019-01-12T00:19:49.742Z,0.90
2019-01-12T00:24:56.815Z,0.80
2019-01-12T00:30:04.110Z,0.80
2019-01-12T00:35:11.428Z,0.70
2019-01-12T00:40:18.580Z,0.70
2019-01-12T00:45:25.858Z,0.60
2019-01-12T00:50:33.019Z,0.60
2019-01-12T00:55:40.082Z,0.50
2019-01-12T01:00:47.158Z,0.40
2019-01-12T01:05:54.233Z,0.30
2019-01-12T01:11:01.315Z,0.30
2019-01-12T01:16:08.484Z,0.30
2019-01-12T01:21:15.506Z,0.10
2019-01-12T01:26:22.546Z,0.10
2019-01-12T01:31:30.601Z,0.00
2019-01-12T01:36:37.654Z,0.00
2019-01-12T01:41:44.908Z,0.00
2019-01-12T01:46:51.977Z,-0.10
2019-01-12T01:51:59.060Z,-0.20
2019-01-12T01:57:06.150Z,-0.30
2019-01-12T02:02:13.312Z,-0.30
2019-01-12T02:07:20.780Z,-0.30
2019-01-12T02:12:28.152Z,-0.30
2019-01-12T02:17:35.490Z,-0.40
2019-01-12T02:22:43.791Z,-0.40
2019-01-12T02:27:52.126Z,-0.30
2019-01-12T02:33:00.439Z,-0.40
2019-01-12T02:38:07.491Z,-0.30
2019-01-12T02:43:14.577Z,-0.40
2019-01-12T02:48:22.285Z,-0.40
2019-01-12T02:53:29.738Z,-0.40
2019-01-12T02:58:36.802Z,-0.40
2019-01-12T03:03:43.944Z,-0.40
2019-01-12T03:08:50.992Z,-0.50
2019-01-12T03:13:58.073Z,-0.40
2019-01-12T03:19:06.089Z,-0.50
2019-01-12T03:24:13.252Z,-0.50
2019-01-12T03:29:21.335Z,-0.40
2019-01-12T03:34:28.477Z,-0.50
2019-01-12T03:39:35.531Z,-0.50
2019-01-12T03:44:42.682Z,-0.50
2019-01-12T03:49:49.934Z,-0.50
2019-01-12T03:54:57.097Z,-0.50
2019-01-12T04:00:06.071Z,-0.60
2019-01-12T04:05:13.234Z,-0.50
2019-01-12T04:10:20.414Z,-0.50
2019-01-12T04:15:27.494Z,-0.50
2019-01-12T04:20:34.580Z,-0.50
2019-01-12T04:25:42.051Z,-0.50
2019-01-12T04:30:49.218Z,-0.50
2019-01-12T04:35:56.722Z,-0.50
2019-01-12T04:41:03.775Z,-0.50
2019-01-12T04:46:10.856Z,-0.50
2019-01-12T04:51:18.007Z,-0.40
2019-01-12T04:56:25.269Z,-0.40
2019-01-12T05:01:32.434Z,-0.40
2019-01-12T05:06:39.518Z,-0.40
2019-01-12T05:11:47.186Z,-0.20
2019-01-12T05:16:54.342Z,-0.10
2019-01-12T05:22:01.403Z,0.00
2019-01-12T05:27:08.449Z,-0.10
2019-01-12T05:32:15.637Z,-0.10
2019-01-12T05:37:22.717Z,-0.20
2019-01-12T05:42:29.763Z,-0.20
2019-01-12T05:47:37.002Z,-0.20
2019-01-12T05:52:44.081Z,-0.30
2019-01-12T05:57:51.419Z,-0.20
2019-01-12T06:02:58.452Z,-0.10
2019-01-12T06:08:05.712Z,-0.20
2019-01-12T06:13:13.132Z,-0.20
2019-01-12T06:18:20.257Z,-0.20
2019-01-12T06:23:27.641Z,-0.20
2019-01-12T06:28:35.927Z,-0.10
2019-01-12T06:33:43.080Z,-0.20
2019-01-12T06:38:50.356Z,-0.10
2019-01-12T06:43:58.237Z,0.00
2019-01-12T06:49:06.108Z,0.00
2019-01-12T06:54:14.039Z,-0.10
2019-01-12T06:59:21.541Z,-0.10
2019-01-12T07:04:28.755Z,-0.10
2019-01-12T07:09:36.433Z,-0.10
2019-01-12T07:14:43.510Z,0.00
2019-01-12T07:19:50.678Z,0.10
2019-01-12T07:24:57.929Z,0.00
2019-01-12T07:30:08.329Z,0.30
2019-01-12T07:35:15.594Z,0.50
2019-01-12T07:40:22.777Z,0.60
2019-01-12T07:45:29.844Z,0.70
2019-01-12T07:50:36.930Z,0.70
2019-01-12T07:55:43.962Z,0.90
2019-01-12T08:00:51.118Z,0.90
2019-01-12T08:05:58.408Z,0.90
2019-01-12T08:11:06.138Z,0.80
2019-01-12T08:16:13.238Z,0.70
2019-01-12T08:21:20.373Z,0.70
2019-01-12T08:26:31.311Z,0.60
2019-01-12T08:31:38.577Z,0.60
2019-01-12T08:36:45.735Z,0.70
2019-01-12T08:41:52.812Z,0.80
2019-01-12T08:47:00.089Z,1.00
2019-01-12T08:52:07.127Z,1.10
2019-01-12T08:57:14.249Z,1.10
2019-01-12T09:02:21.767Z,1.10
2019-01-12T09:07:29.030Z,1.10
2019-01-12T09:12:36.089Z,1.20
2019-01-12T09:17:44.064Z,1.10
2019-01-12T09:22:51.346Z,1.20
2019-01-12T09:27:59.359Z,1.30
2019-01-12T09:33:06.455Z,1.30
2019-01-12T09:38:13.620Z,1.40
2019-01-12T09:43:20.710Z,1.50
2019-01-12T09:48:28.999Z,1.40
2019-01-12T09:53:36.619Z,1.50
2019-01-12T09:58:43.760Z,1.50
2019-01-12T10:03:51.170Z,1.40
2019-01-12T10:08:58.359Z,1.40
2019-01-12T10:14:06.338Z,1.40
2019-01-12T10:19:13.294Z,1.40
2019-01-12T10:24:24.430Z,1.30
2019-01-12T10:29:31.532Z,1.30
2019-01-12T10:34:39.967Z,1.30
2019-01-12T10:39:47.029Z,1.30
2019-01-12T10:44:54.173Z,1.30
2019-01-12T10:50:01.668Z,1.30
2019-01-12T10:55:09.023Z,1.40
2019-01-12T11:00:23.430Z,1.30
2019-01-12T11:05:31.493Z,1.40
2019-01-12T11:10:38.838Z,1.40
2019-01-12T11:15:45.878Z,1.40
2019-01-12T11:20:53.823Z,1.40
2019-01-12T11:26:01.896Z,1.40
2019-01-12T11:31:09.861Z,1.50
2019-01-12T11:36:17.742Z,1.50
2019-01-12T11:41:24.833Z,1.60
2019-01-12T11:46:32.317Z,1.50
2019-01-12T11:51:39.416Z,1.50
2019-01-12T11:56:46.517Z,1.50
2019-01-12T12:01:53.681Z,1.50
2019-01-12T12:07:01.085Z,1.50
2019-01-12T12:12:08.261Z,1.40
2019-01-12T12:17:15.542Z,1.50
2019-01-12T12:22:22.721Z,1.40
2019-01-12T12:27:29.799Z,1.40
2019-01-12T12:32:38.313Z,1.40
2019-01-12T12:37:45.706Z,1.50
2019-01-12T12:42:53.006Z,1.50
2019-01-12T12:48:04.116Z,1.50
2019-01-12T12:53:11.371Z,1.60
2019-01-12T12:58:20.292Z,1.70
2019-01-12T13:03:27.353Z,1.70
2019-01-12T13:08:34.606Z,1.70
2019-01-12T13:13:43.020Z,1.70
2019-01-12T13:18:50.068Z,1.70
2019-01-12T13:23:58.814Z,1.70
2019-01-12T13:29:06.192Z,1.70
2019-01-12T13:34:13.549Z,1.70
2019-01-12T13:39:22.087Z,1.70
2019-01-12T13:44:29.293Z,1.70
2019-01-12T13:49:36.337Z,1.60
2019-01-12T13:54:44.714Z,1.50
2019-01-12T13:59:52.894Z,1.50
2019-01-12T14:05:00.276Z,1.50
2019-01-12T14:10:09.733Z,1.40
2019-01-12T14:15:17.487Z,1.40
2019-01-12T14:20:30.902Z,1.50
2019-01-12T14:25:38.085Z,1.40
2019-01-12T14:30:46.100Z,1.40
2019-01-12T14:35:53.214Z,1.50
2019-01-12T14:41:00.343Z,1.50
2019-01-12T14:46:07.509Z,1.40
2019-01-12T14:51:15.883Z,1.40
2019-01-12T14:56:23.653Z,1.40
2019-01-12T15:01:32.207Z,1.40
2019-01-12T15:06:40.261Z,1.50
2019-01-12T15:11:48.291Z,1.40
2019-01-12T15:16:55.463Z,1.40
2019-01-12T15:22:02.513Z,1.40
2019-01-12T15:27:09.689Z,1.40
2019-01-12T15:32:17.935Z,1.40
2019-01-12T15:37:25.036Z,1.40
2019-01-12T15:42:32.286Z,1.40
2019-01-12T15:47:40.373Z,1.40
2019-01-12T15:52:47.753Z,1.40
2019-01-12T15:57:55.126Z,1.50
2019-01-12T16:03:02.389Z,1.40
2019-01-12T16:08:10.561Z,1.40
2019-01-12T16:13:17.686Z,1.50
2019-01-12T16:18:25.762Z,1.40
2019-01-12T16:23:32.819Z,1.50
2019-01-12T16:28:39.992Z,1.50
2019-01-12T16:33:47.768Z,1.50
2019-01-12T16:38:55.054Z,1.50
2019-01-12T16:44:02.604Z,1.50
2019-01-12T16:49:10.771Z,1.50
2019-01-12T16:54:17.865Z,1.50
2019-01-12T16:59:24.964Z,1.50
2019-01-12T17:04:33.007Z,1.60
2019-01-12T17:09:41.556Z,1.60
2019-01-12T17:14:49.316Z,1.60
2019-01-12T17:19:56.686Z,1.60
2019-01-12T17:25:04.169Z,1.70
2019-01-12T17:30:14.434Z,1.70
2019-01-12T17:35:23.375Z,1.70
2019-01-12T17:40:30.454Z,1.70
2019-01-12T17:45:39.042Z,1.80
2019-01-12T17:50:46.339Z,1.80
2019-01-12T17:55:54.417Z,1.90
2019-01-12T18:01:01.557Z,1.90
2019-01-12T18:06:08.769Z,1.90
2019-01-12T18:11:21.731Z,1.90
2019-01-12T18:16:28.876Z,1.90
2019-01-12T18:21:35.960Z,1.90
2019-01-12T18:26:43.389Z,2.00
2019-01-12T18:31:50.479Z,2.00
2019-01-12T18:36:58.812Z,2.00
2019-01-12T18:42:06.235Z,2.00
2019-01-12T18:47:13.437Z,2.10
2019-01-12T18:52:21.530Z,2.10
2019-01-12T18:57:28.924Z,2.20
2019-01-12T19:02:36.523Z,2.20
2019-01-12T19:07:43.682Z,2.20
2019-01-12T19:12:53.297Z,2.30
2019-01-12T19:18:00.397Z,2.30
2019-01-12T19:23:08.725Z,2.40
2019-01-12T19:28:17.225Z,2.40
2019-01-12T19:33:24.219Z,2.50
2019-01-12T19:38:31.595Z,2.50
2019-01-12T19:43:38.641Z,2.50
2019-01-12T19:48:45.782Z,2.50
2019-01-12T19:53:54.123Z,2.50
2019-01-12T19:59:01.860Z,2.50
2019-01-12T20:04:09.769Z,2.50
2019-01-12T20:09:17.441Z,2.50
2019-01-12T20:14:26.515Z,2.50
2019-01-12T20:19:34.866Z,2.50
2019-01-12T20:24:43.345Z,2.60
2019-01-12T20:29:50.472Z,2.60
2019-01-12T20:35:22.509Z,2.50
2019-01-12T20:40:59.837Z,2.60
2019-01-12T20:47:10.335Z,2.60
2019-01-12T20:52:58.038Z,2.60
2019-01-12T20:58:52.748Z,2.60
2019-01-12T21:04:29.812Z,2.70
2019-01-12T21:10:34.041Z,2.60
2019-01-12T21:15:49.800Z,2.60
2019-01-12T21:20:58.064Z,2.60
2019-01-12T21:26:06.230Z,2.60
2019-01-12T21:31:14.416Z,2.60
2019-01-12T21:36:21.463Z,2.60
2019-01-12T21:41:28.637Z,2.60
2019-01-12T21:46:37.003Z,2.60
2019-01-12T21:51:45.588Z,2.60
2019-01-12T21:56:53.914Z,2.60
2019-01-12T22:02:02.098Z,2.60
2019-01-12T22:07:10.522Z,2.60
2019-01-12T22:12:17.899Z,2.70
2019-01-12T22:17:25.992Z,2.70
2019-01-12T22:22:33.085Z,2.70
2019-01-12T22:27:40.144Z,2.70
2019-01-12T22:32:47.329Z,2.70
2019-01-12T22:37:54.456Z,2.70
2019-01-12T22:43:01.885Z,2.70
2019-01-12T22:48:09.046Z,2.80
2019-01-12T22:53:16.125Z,2.70
2019-01-12T22:58:23.298Z,2.70
2019-01-12T23:03:31.928Z,2.80
2019-01-12T23:08:39.070Z,2.80
2019-01-12T23:13:47.412Z,2.80
2019-01-12T23:18:54.637Z,2.90
2019-01-12T23:24:03.021Z,2.90
2019-01-12T23:29:10.209Z,2.90
2019-01-12T23:34:17.324Z,2.90
2019-01-12T23:39:24.698Z,3.00
2019-01-12T23:44:31.863Z,3.00
2019-01-12T23:49:39.458Z,3.00
2019-01-12T23:54:46.541Z,3.00
2019-01-12T23:59:53.604Z,3.10
